sensor_id;sensor_type;location;lat;lon;timestamp;pressure;altitude;pressure_sealevel;temperature;humidity
73101;BME280;61288;53.446;-2.266;2023-08-24T00:01:35;102354.16;;;16.53;100.00
73101;BME280;61288;53.446;-2.266;2023-08-24T00:04:00;102356.00;;;16.51;100.00
73101;BME280;61288;53.446;-2.266;2023-08-24T00:06:26;102362.09;;;16.52;100.00
73101;BME280;61288;53.446;-2.266;2023-08-24T00:08:52;102359.53;;;16.50;100.00
73101;BME280;61288;53.446;-2.266;2023-08-24T00:11:18;102363.91;;;16.50;100.00
73101;BME280;61288;53.446;-2.266;2023-08-24T00:13:44;102373.47;;;16.51;100.00
73101;BME280;61288;53.446;-2.266;2023-08-24T00:16:15;102372.69;;;16.49;100.00
73101;BME280;61288;53.446;-2.266;2023-08-24T00:18:41;102373.53;;;16.49;100.00
73101;BME280;61288;53.446;-2.266;2023-08-24T00:21:06;102375.19;;;16.52;100.00
73101;BME280;61288;53.446;-2.266;2023-08-24T00:23:33;102377.00;;;16.50;100.00
73101;BME280;61288;53.446;-2.266;2023-08-24T00:25:59;102388.31;;;16.50;100.00
73101;BME280;61288;53.446;-2.266;2023-08-24T00:28:25;102392.81;;;16.46;100.00
73101;BME280;61288;53.446;-2.266;2023-08-24T00:30:54;102398.91;;;16.47;100.00
73101;BME280;61288;53.446;-2.266;2023-08-24T00:33:20;102405.00;;;16.48;100.00
73101;BME280;61288;53.446;-2.266;2023-08-24T00:35:45;102405.00;;;16.48;100.00
73101;BME280;61288;53.446;-2.266;2023-08-24T00:38:11;102408.41;;;16.50;100.00
73101;BME280;61288;53.446;-2.266;2023-08-24T00:40:36;102400.56;;;16.50;100.00
73101;BME280;61288;53.446;-2.266;2023-08-24T00:43:02;102400.56;;;16.50;100.00
73101;BME280;61288;53.446;-2.266;2023-08-24T00:45:27;102397.94;;;16.50;100.00
73101;BME280;61288;53.446;-2.266;2023-08-24T00:47:53;102389.22;;;16.49;100.00
73101;BME280;61288;53.446;-2.266;2023-08-24T00:50:19;102403.22;;;16.48;100.00
73101;BME280;61288;53.446;-2.266;2023-08-24T00:52:46;102407.63;;;16.48;100.00
73101;BME280;61288;53.446;-2.266;2023-08-24T00:55:12;102405.91;;;16.46;100.00
73101;BME280;61288;53.446;-2.266;2023-08-24T00:57:39;102399.81;;;16.46;100.00
73101;BME280;61288;53.446;-2.266;2023-08-24T01:00:08;102413.81;;;16.45;100.00
73101;BME280;61288;53.446;-2.266;2023-08-24T01:02:37;102419.03;;;16.45;100.00
73101;BME280;61288;53.446;-2.266;2023-08-24T01:05:06;102411.25;;;16.43;100.00
73101;BME280;61288;53.446;-2.266;2023-08-24T01:07:36;102412.09;;;16.44;100.00
73101;BME280;61288;53.446;-2.266;2023-08-24T01:10:03;102412.16;;;16.42;100.00
73101;BME280;61288;53.446;-2.266;2023-08-24T01:15:15;102406.97;;;16.41;100.00
73101;BME280;61288;53.446;-2.266;2023-08-24T01:17:43;102393.03;;;16.40;100.00
73101;BME280;61288;53.446;-2.266;2023-08-24T01:20:10;102386.91;;;16.41;100.00
73101;BME280;61288;53.446;-2.266;2023-08-24T01:25:06;102378.38;;;16.36;100.00
73101;BME280;61288;53.446;-2.266;2023-08-24T01:27:36;102370.59;;;16.35;100.00
73101;BME280;61288;53.446;-2.266;2023-08-24T01:30:04;102375.88;;;16.33;100.00
73101;BME280;61288;53.446;-2.266;2023-08-24T01:32:31;102372.53;;;16.29;100.00
73101;BME280;61288;53.446;-2.266;2023-08-24T01:34:58;102360.31;;;16.30;100.00
73101;BME280;61288;53.446;-2.266;2023-08-24T01:37:24;102351.66;;;16.28;100.00
73101;BME280;61288;53.446;-2.266;2023-08-24T01:40:26;102347.41;;;16.25;100.00
73101;BME280;61288;53.446;-2.266;2023-08-24T01:43:03;102351.00;;;16.23;100.00
73101;BME280;61288;53.446;-2.266;2023-08-24T01:45:30;102342.34;;;16.21;100.00
73101;BME280;61288;53.446;-2.266;2023-08-24T01:47:57;102339.91;;;16.16;100.00
73101;BME280;61288;53.446;-2.266;2023-08-24T01:50:24;102319.91;;;16.15;100.00
73101;BME280;61288;53.446;-2.266;2023-08-24T01:52:50;102321.78;;;16.11;100.00
73101;BME280;61288;53.446;-2.266;2023-08-24T01:55:20;102315.69;;;16.11;100.00
73101;BME280;61288;53.446;-2.266;2023-08-24T01:57:46;102318.38;;;16.09;100.00
73101;BME280;61288;53.446;-2.266;2023-08-24T02:00:11;102305.41;;;16.06;100.00
73101;BME280;61288;53.446;-2.266;2023-08-24T02:02:37;102308.94;;;16.05;100.00
73101;BME280;61288;53.446;-2.266;2023-08-24T02:05:03;102298.53;;;16.03;100.00
73101;BME280;61288;53.446;-2.266;2023-08-24T02:07:29;102291.66;;;16.01;100.00
73101;BME280;61288;53.446;-2.266;2023-08-24T02:09:55;102278.72;;;15.98;100.00
73101;BME280;61288;53.446;-2.266;2023-08-24T02:12:20;102275.41;;;15.93;100.00
73101;BME280;61288;53.446;-2.266;2023-08-24T02:14:46;102272.09;;;15.87;100.00
73101;BME280;61288;53.446;-2.266;2023-08-24T02:17:11;102272.22;;;15.84;100.00
73101;BME280;61288;53.446;-2.266;2023-08-24T02:19:37;102267.09;;;15.81;100.00
73101;BME280;61288;53.446;-2.266;2023-08-24T02:22:03;102265.53;;;15.77;100.00
73101;BME280;61288;53.446;-2.266;2023-08-24T02:24:30;102261.28;;;15.73;100.00
73101;BME280;61288;53.446;-2.266;2023-08-24T02:26:55;102270.97;;;15.71;100.00
73101;BME280;61288;53.446;-2.266;2023-08-24T02:29:21;102266.72;;;15.68;100.00
73101;BME280;61288;53.446;-2.266;2023-08-24T02:31:49;102261.59;;;15.65;100.00
73101;BME280;61288;53.446;-2.266;2023-08-24T02:34:15;102269.47;;;15.64;100.00
73101;BME280;61288;53.446;-2.266;2023-08-24T02:36:40;102279.16;;;15.62;100.00
73101;BME280;61288;53.446;-2.266;2023-08-24T02:39:05;102285.28;;;15.60;100.00
73101;BME280;61288;53.446;-2.266;2023-08-24T02:41:31;102286.16;;;15.61;100.00
73101;BME280;61288;53.446;-2.266;2023-08-24T02:43:56;102287.84;;;15.62;100.00
73101;BME280;61288;53.446;-2.266;2023-08-24T02:46:22;102282.63;;;15.62;100.00
73101;BME280;61288;53.446;-2.266;2023-08-24T02:48:48;102286.06;;;15.63;100.00
73101;BME280;61288;53.446;-2.266;2023-08-24T02:51:13;102265.13;;;15.64;100.00
73101;BME280;61288;53.446;-2.266;2023-08-24T02:53:39;102268.53;;;15.66;100.00
73101;BME280;61288;53.446;-2.266;2023-08-24T02:56:04;102270.34;;;15.64;100.00
73101;BME280;61288;53.446;-2.266;2023-08-24T02:58:30;102270.34;;;15.64;100.00
73101;BME280;61288;53.446;-2.266;2023-08-24T03:00:57;102272.88;;;15.66;100.00
73101;BME280;61288;53.446;-2.266;2023-08-24T03:03:23;102281.59;;;15.66;100.00
73101;BME280;61288;53.446;-2.266;2023-08-24T03:08:26;102273.00;;;15.63;100.00
73101;BME280;61288;53.446;-2.266;2023-08-24T03:10:51;102269.56;;;15.62;100.00
73101;BME280;61288;53.446;-2.266;2023-08-24T03:13:17;102276.50;;;15.63;100.00
73101;BME280;61288;53.446;-2.266;2023-08-24T03:15:43;102273.88;;;15.63;100.00
73101;BME280;61288;53.446;-2.266;2023-08-24T03:18:11;102279.16;;;15.62;100.00
73101;BME280;61288;53.446;-2.266;2023-08-24T03:20:37;102269.59;;;15.60;100.00
73101;BME280;61288;53.446;-2.266;2023-08-24T03:23:05;102264.38;;;15.60;100.00
73101;BME280;61288;53.446;-2.266;2023-08-24T03:25:34;102267.91;;;15.59;100.00
73101;BME280;61288;53.446;-2.266;2023-08-24T03:28:01;102267.06;;;15.59;100.00
73101;BME280;61288;53.446;-2.266;2023-08-24T03:30:27;102261.88;;;15.57;100.00
73101;BME280;61288;53.446;-2.266;2023-08-24T03:32:53;102257.59;;;15.55;100.00
73101;BME280;61288;53.446;-2.266;2023-08-24T03:35:22;102245.44;;;15.54;100.00
73101;BME280;61288;53.446;-2.266;2023-08-24T03:37:47;102239.44;;;15.52;100.00
73101;BME280;61288;53.446;-2.266;2023-08-24T03:40:13;102232.50;;;15.51;100.00
73101;BME280;61288;53.446;-2.266;2023-08-24T03:42:39;102220.34;;;15.50;100.00
73101;BME280;61288;53.446;-2.266;2023-08-24T03:45:05;102211.72;;;15.48;100.00
73101;BME280;61288;53.446;-2.266;2023-08-24T03:47:31;102210.03;;;15.47;100.00
73101;BME280;61288;53.446;-2.266;2023-08-24T03:49:56;102199.56;;;15.47;100.00
73101;BME280;61288;53.446;-2.266;2023-08-24T03:52:22;102203.97;;;15.46;100.00
73101;BME280;61288;53.446;-2.266;2023-08-24T03:54:48;102196.25;;;15.43;100.00
73101;BME280;61288;53.446;-2.266;2023-08-24T03:57:14;102197.19;;;15.40;100.00
73101;BME280;61288;53.446;-2.266;2023-08-24T03:59:39;102191.19;;;15.38;100.00
73101;BME280;61288;53.446;-2.266;2023-08-24T04:02:05;102193.72;;;15.40;100.00
73101;BME280;61288;53.446;-2.266;2023-08-24T04:04:31;102191.22;;;15.37;100.00
73101;BME280;61288;53.446;-2.266;2023-08-24T04:06:57;102189.53;;;15.36;100.00
73101;BME280;61288;53.446;-2.266;2023-08-24T04:09:22;102191.28;;;15.35;100.00
73101;BME280;61288;53.446;-2.266;2023-08-24T04:11:47;102194.84;;;15.33;100.00
73101;BME280;61288;53.446;-2.266;2023-08-24T04:14:13;102193.16;;;15.31;100.00
73101;BME280;61288;53.446;-2.266;2023-08-24T04:16:39;102181.00;;;15.30;100.00
73101;BME280;61288;53.446;-2.266;2023-08-24T04:19:05;102187.09;;;15.31;100.00
73101;BME280;61288;53.446;-2.266;2023-08-24T04:21:30;102188.84;;;15.30;100.00
73101;BME280;61288;53.446;-2.266;2023-08-24T04:23:56;102176.78;;;15.28;100.00
73101;BME280;61288;53.446;-2.266;2023-08-24T04:26:21;102157.63;;;15.27;100.00
73101;BME280;61288;53.446;-2.266;2023-08-24T04:28:47;102154.97;;;15.29;100.00
73101;BME280;61288;53.446;-2.266;2023-08-24T04:31:12;102163.72;;;15.28;100.00
73101;BME280;61288;53.446;-2.266;2023-08-24T04:33:38;102174.16;;;15.28;100.00
73101;BME280;61288;53.446;-2.266;2023-08-24T04:36:03;102182.03;;;15.26;100.00
73101;BME280;61288;53.446;-2.266;2023-08-24T04:38:29;102177.69;;;15.27;100.00
73101;BME280;61288;53.446;-2.266;2023-08-24T04:40:55;102173.28;;;15.27;100.00
73101;BME280;61288;53.446;-2.266;2023-08-24T04:43:22;102155.00;;;15.27;100.00
73101;BME280;61288;53.446;-2.266;2023-08-24T04:45:49;102162.91;;;15.26;100.00
73101;BME280;61288;53.446;-2.266;2023-08-24T04:48:21;102166.47;;;15.23;100.00
73101;BME280;61288;53.446;-2.266;2023-08-24T04:50:46;102165.63;;;15.23;100.00
73101;BME280;61288;53.446;-2.266;2023-08-24T04:53:16;102165.69;;;15.21;100.00
73101;BME280;61288;53.446;-2.266;2023-08-24T04:55:43;102161.38;;;15.20;100.00
73101;BME280;61288;53.446;-2.266;2023-08-24T04:58:12;102158.81;;;15.19;100.00
73101;BME280;61288;53.446;-2.266;2023-08-24T05:00:39;102170.22;;;15.16;100.00
73101;BME280;61288;53.446;-2.266;2023-08-24T05:03:05;102172.03;;;15.14;100.00
73101;BME280;61288;53.446;-2.266;2023-08-24T05:05:33;102171.19;;;15.13;100.00
73101;BME280;61288;53.446;-2.266;2023-08-24T05:08:00;102170.28;;;15.14;100.00
73101;BME280;61288;53.446;-2.266;2023-08-24T05:10:30;102171.13;;;15.15;100.00
73101;BME280;61288;53.446;-2.266;2023-08-24T05:12:56;102165.97;;;15.13;100.00
73101;BME280;61288;53.446;-2.266;2023-08-24T05:15:21;102161.66;;;15.12;100.00
73101;BME280;61288;53.446;-2.266;2023-08-24T05:17:47;102141.63;;;15.13;100.00
73101;BME280;61288;53.446;-2.266;2023-08-24T05:20:13;102128.50;;;15.14;100.00
73101;BME280;61288;53.446;-2.266;2023-08-24T05:22:39;102124.19;;;15.13;100.00
73101;BME280;61288;53.446;-2.266;2023-08-24T05:25:05;102126.81;;;15.13;100.00
73101;BME280;61288;53.446;-2.266;2023-08-24T05:27:31;102116.34;;;15.13;100.00
73101;BME280;61288;53.446;-2.266;2023-08-24T05:29:57;102126.75;;;15.15;100.00
73101;BME280;61288;53.446;-2.266;2023-08-24T05:32:23;102117.16;;;15.15;100.00
73101;BME280;61288;53.446;-2.266;2023-08-24T05:34:48;102121.47;;;15.16;100.00
73101;BME280;61288;53.446;-2.266;2023-08-24T05:37:14;102118.81;;;15.18;100.00
73101;BME280;61288;53.446;-2.266;2023-08-24T05:39:41;102107.50;;;15.18;100.00
73101;BME280;61288;53.446;-2.266;2023-08-24T05:42:07;102105.75;;;15.18;100.00
73101;BME280;61288;53.446;-2.266;2023-08-24T05:44:32;102110.97;;;15.18;100.00
73101;BME280;61288;53.446;-2.266;2023-08-24T05:46:58;102111.75;;;15.20;100.00
73101;BME280;61288;53.446;-2.266;2023-08-24T05:49:23;102111.66;;;15.23;100.00
73101;BME280;61288;53.446;-2.266;2023-08-24T05:51:51;102110.75;;;15.24;100.00
73101;BME280;61288;53.446;-2.266;2023-08-24T05:54:16;102097.56;;;15.27;100.00
73101;BME280;61288;53.446;-2.266;2023-08-24T05:56:44;102104.44;;;15.30;100.00
73101;BME280;61288;53.446;-2.266;2023-08-24T05:59:10;102106.16;;;15.31;100.00
73101;BME280;61288;53.446;-2.266;2023-08-24T06:01:35;102099.88;;;15.35;100.00
73101;BME280;61288;53.446;-2.266;2023-08-24T06:04:04;102095.56;;;15.34;100.00
73101;BME280;61288;53.446;-2.266;2023-08-24T06:06:34;102090.28;;;15.36;100.00
73101;BME280;61288;53.446;-2.266;2023-08-24T06:08:59;102086.72;;;15.38;100.00
73101;BME280;61288;53.446;-2.266;2023-08-24T06:11:25;102082.28;;;15.40;100.00
73101;BME280;61288;53.446;-2.266;2023-08-24T06:13:50;102069.09;;;15.43;100.00
73101;BME280;61288;53.446;-2.266;2023-08-24T06:16:19;102064.66;;;15.45;100.00
73101;BME280;61288;53.446;-2.266;2023-08-24T06:18:44;102062.00;;;15.47;100.00
73101;BME280;61288;53.446;-2.266;2023-08-24T06:21:10;102062.72;;;15.51;100.00
73101;BME280;61288;53.446;-2.266;2023-08-24T06:23:35;102053.97;;;15.52;100.00
73101;BME280;61288;53.446;-2.266;2023-08-24T06:26:01;102034.72;;;15.54;100.00
73101;BME280;61288;53.446;-2.266;2023-08-24T06:28:27;102017.22;;;15.56;100.00
73101;BME280;61288;53.446;-2.266;2023-08-24T06:30:54;101998.88;;;15.58;100.00
73101;BME280;61288;53.446;-2.266;2023-08-24T06:33:20;101989.13;;;15.62;100.00
73101;BME280;61288;53.446;-2.266;2023-08-24T06:35:47;101991.69;;;15.63;100.00
73101;BME280;61288;53.446;-2.266;2023-08-24T06:38:13;101986.34;;;15.66;100.00
73101;BME280;61288;53.446;-2.266;2023-08-24T06:40:39;101959.31;;;15.67;100.00
73101;BME280;61288;53.446;-2.266;2023-08-24T06:43:05;101942.63;;;15.70;100.00
73101;BME280;61288;53.446;-2.266;2023-08-24T06:45:33;101938.97;;;15.74;100.00
73101;BME280;61288;53.446;-2.266;2023-08-24T06:47:58;101915.44;;;15.74;100.00
73101;BME280;61288;53.446;-2.266;2023-08-24T06:50:23;101900.50;;;15.78;100.00
73101;BME280;61288;53.446;-2.266;2023-08-24T06:52:49;101901.28;;;15.80;100.00
73101;BME280;61288;53.446;-2.266;2023-08-24T06:55:14;101896.19;;;15.77;100.00
73101;BME280;61288;53.446;-2.266;2023-08-24T06:57:40;101904.81;;;15.79;100.00
73101;BME280;61288;53.446;-2.266;2023-08-24T07:00:06;101894.34;;;15.79;100.00
73101;BME280;61288;53.446;-2.266;2023-08-24T07:02:34;101898.66;;;15.80;100.00
73101;BME280;61288;53.446;-2.266;2023-08-24T07:04:59;101899.53;;;15.80;100.00
73101;BME280;61288;53.446;-2.266;2023-08-24T07:07:26;101903.75;;;15.83;100.00
73101;BME280;61288;53.446;-2.266;2023-08-24T07:09:51;101907.09;;;15.86;100.00
73101;BME280;61288;53.446;-2.266;2023-08-24T07:12:17;101885.28;;;15.87;100.00
73101;BME280;61288;53.446;-2.266;2023-08-24T07:14:42;101905.31;;;15.87;100.00
73101;BME280;61288;53.446;-2.266;2023-08-24T07:17:07;101927.13;;;15.86;100.00
73101;BME280;61288;53.446;-2.266;2023-08-24T07:19:33;101937.59;;;15.86;100.00
73101;BME280;61288;53.446;-2.266;2023-08-24T07:21:59;101915.91;;;15.84;100.00
73101;BME280;61288;53.446;-2.266;2023-08-24T07:24:24;101913.38;;;15.82;100.00
73101;BME280;61288;53.446;-2.266;2023-08-24T07:26:54;101910.69;;;15.84;100.00
73101;BME280;61288;53.446;-2.266;2023-08-24T07:29:20;101903.69;;;15.84;100.00
73101;BME280;61288;53.446;-2.266;2023-08-24T07:31:49;101904.47;;;15.86;100.00
73101;BME280;61288;53.446;-2.266;2023-08-24T07:34:15;101901.00;;;15.86;100.00
73101;BME280;61288;53.446;-2.266;2023-08-24T07:36:41;101898.38;;;15.86;100.00
73101;BME280;61288;53.446;-2.266;2023-08-24T07:39:07;101887.16;;;15.84;100.00
73101;BME280;61288;53.446;-2.266;2023-08-24T07:41:33;101881.00;;;15.85;100.00
73101;BME280;61288;53.446;-2.266;2023-08-24T07:43:59;101875.72;;;15.86;100.00
73101;BME280;61288;53.446;-2.266;2023-08-24T07:46:24;101874.09;;;15.84;100.00
73101;BME280;61288;53.446;-2.266;2023-08-24T07:48:50;101872.47;;;15.81;100.00
73101;BME280;61288;53.446;-2.266;2023-08-24T07:51:15;101867.25;;;15.81;100.00
73101;BME280;61288;53.446;-2.266;2023-08-24T07:53:41;101875.16;;;15.80;100.00
73101;BME280;61288;53.446;-2.266;2023-08-24T07:56:06;101883.13;;;15.77;100.00
73101;BME280;61288;53.446;-2.266;2023-08-24T07:58:32;101902.31;;;15.76;100.00
73101;BME280;61288;53.446;-2.266;2023-08-24T08:00:59;101918.88;;;15.76;100.00
73101;BME280;61288;53.446;-2.266;2023-08-24T08:03:24;101933.63;;;15.77;100.00
73101;BME280;61288;53.446;-2.266;2023-08-24T08:05:50;101945.00;;;15.76;100.00
73101;BME280;61288;53.446;-2.266;2023-08-24T08:08:16;101955.47;;;15.76;100.00
73101;BME280;61288;53.446;-2.266;2023-08-24T08:10:42;101947.53;;;15.78;100.00
73101;BME280;61288;53.446;-2.266;2023-08-24T08:13:08;101943.16;;;15.78;100.00
73101;BME280;61288;53.446;-2.266;2023-08-24T08:15:36;101941.25;;;15.82;100.00
73101;BME280;61288;53.446;-2.266;2023-08-24T08:18:04;101954.03;;;15.90;100.00
73101;BME280;61288;53.446;-2.266;2023-08-24T08:20:33;101968.63;;;15.95;100.00
73101;BME280;61288;53.446;-2.266;2023-08-24T08:22:59;101973.63;;;16.00;100.00
73101;BME280;61288;53.446;-2.266;2023-08-24T08:25:25;101968.25;;;16.03;100.00
73101;BME280;61288;53.446;-2.266;2023-08-24T08:27:50;101961.09;;;16.08;100.00
73101;BME280;61288;53.446;-2.266;2023-08-24T08:30:16;101947.81;;;16.13;100.00
73101;BME280;61288;53.446;-2.266;2023-08-24T08:32:41;101952.97;;;16.14;100.00
73101;BME280;61288;53.446;-2.266;2023-08-24T08:35:08;101937.28;;;16.14;100.00
73101;BME280;61288;53.446;-2.266;2023-08-24T08:37:34;101931.06;;;16.17;100.00
73101;BME280;61288;53.446;-2.266;2023-08-24T08:40:03;101932.56;;;16.23;100.00
73101;BME280;61288;53.446;-2.266;2023-08-24T08:42:35;101930.66;;;16.26;100.00
73101;BME280;61288;53.446;-2.266;2023-08-24T08:45:02;101937.44;;;16.30;100.00
73101;BME280;61288;53.446;-2.266;2023-08-24T08:47:28;101937.44;;;16.30;100.00
73101;BME280;61288;53.446;-2.266;2023-08-24T08:49:55;101938.22;;;16.33;100.00
73101;BME280;61288;53.446;-2.266;2023-08-24T08:52:21;101936.53;;;16.31;100.00
73101;BME280;61288;53.446;-2.266;2023-08-24T08:54:47;101935.47;;;16.36;100.00
73101;BME280;61288;53.446;-2.266;2023-08-24T08:57:14;101933.81;;;16.33;100.00
73101;BME280;61288;53.446;-2.266;2023-08-24T08:59:47;101939.94;;;16.34;100.00
73101;BME280;61288;53.446;-2.266;2023-08-24T09:02:16;101932.06;;;16.34;100.00
73101;BME280;61288;53.446;-2.266;2023-08-24T09:04:47;101917.34;;;16.31;100.00
73101;BME280;61288;53.446;-2.266;2023-08-24T09:07:13;101922.41;;;16.36;100.00
73101;BME280;61288;53.446;-2.266;2023-08-24T09:09:42;101937.84;;;16.40;100.00
73101;BME280;61288;53.446;-2.266;2023-08-24T09:12:09;101954.34;;;16.42;100.00
73101;BME280;61288;53.446;-2.266;2023-08-24T09:14:35;101954.34;;;16.42;100.00
73101;BME280;61288;53.446;-2.266;2023-08-24T09:17:00;101938.72;;;16.41;100.00
73101;BME280;61288;53.446;-2.266;2023-08-24T09:19:30;101925.84;;;16.36;100.00
73101;BME280;61288;53.446;-2.266;2023-08-24T09:22:01;101919.84;;;16.34;100.00
73101;BME280;61288;53.446;-2.266;2023-08-24T09:24:34;101918.28;;;16.30;100.00
73101;BME280;61288;53.446;-2.266;2023-08-24T09:27:14;101924.50;;;16.27;100.00
73101;BME280;61288;53.446;-2.266;2023-08-24T09:29:41;101924.66;;;16.24;100.00
73101;BME280;61288;53.446;-2.266;2023-08-24T09:32:09;101920.47;;;16.20;100.00
73101;BME280;61288;53.446;-2.266;2023-08-24T09:34:38;101913.63;;;16.17;100.00
73101;BME280;61288;53.446;-2.266;2023-08-24T09:37:04;101914.38;;;16.20;100.00
73101;BME280;61288;53.446;-2.266;2023-08-24T09:39:30;101922.03;;;16.24;100.00
73101;BME280;61288;53.446;-2.266;2023-08-24T09:42:00;101924.50;;;16.27;100.00
73101;BME280;61288;53.446;-2.266;2023-08-24T09:44:28;101925.00;;;16.36;100.00
73101;BME280;61288;53.446;-2.266;2023-08-24T09:46:54;101937.81;;;16.42;100.00
73101;BME280;61288;53.446;-2.266;2023-08-24T09:49:20;101918.66;;;16.41;100.00
73101;BME280;61288;53.446;-2.266;2023-08-24T09:51:48;101903.03;;;16.40;100.00
73101;BME280;61288;53.446;-2.266;2023-08-24T09:54:16;101899.44;;;16.42;100.00
73101;BME280;61288;53.446;-2.266;2023-08-24T09:56:50;101891.59;;;16.42;100.00
73101;BME280;61288;53.446;-2.266;2023-08-24T09:59:17;101886.41;;;16.41;100.00
73101;BME280;61288;53.446;-2.266;2023-08-24T10:01:45;101883.00;;;16.39;100.00
73101;BME280;61288;53.446;-2.266;2023-08-24T10:04:14;101886.59;;;16.36;100.00
73101;BME280;61288;53.446;-2.266;2023-08-24T10:06:40;101885.00;;;16.34;100.00
73101;BME280;61288;53.446;-2.266;2023-08-24T10:09:08;101886.13;;;16.28;100.00
73101;BME280;61288;53.446;-2.266;2023-08-24T10:11:42;101896.91;;;16.20;100.00
73101;BME280;61288;53.446;-2.266;2023-08-24T10:14:29;101911.91;;;16.16;100.00
73101;BME280;61288;53.446;-2.266;2023-08-24T10:16:56;101924.28;;;16.13;100.00
73101;BME280;61288;53.446;-2.266;2023-08-24T10:19:24;101947.94;;;16.10;100.00
73101;BME280;61288;53.446;-2.266;2023-08-24T10:21:53;101965.78;;;16.00;100.00
73101;BME280;61288;53.446;-2.266;2023-08-24T10:24:19;101972.00;;;15.97;100.00
73101;BME280;61288;53.446;-2.266;2023-08-24T10:26:47;101972.34;;;15.90;100.00
73101;BME280;61288;53.446;-2.266;2023-08-24T10:29:13;101963.72;;;15.86;100.00
73101;BME280;61288;53.446;-2.266;2023-08-24T10:31:40;101972.47;;;15.85;100.00
73101;BME280;61288;53.446;-2.266;2023-08-24T10:34:07;101980.28;;;15.86;100.00
73101;BME280;61288;53.446;-2.266;2023-08-24T10:36:33;101977.66;;;15.86;100.00
73101;BME280;61288;53.446;-2.266;2023-08-24T10:39:02;101981.97;;;15.87;100.00
73101;BME280;61288;53.446;-2.266;2023-08-24T10:41:46;101989.81;;;15.87;100.00
73101;BME280;61288;53.446;-2.266;2023-08-24T10:44:20;101980.19;;;15.90;100.00
73101;BME280;61288;53.446;-2.266;2023-08-24T10:47:11;101981.69;;;15.95;100.00
73101;BME280;61288;53.446;-2.266;2023-08-24T10:49:37;101985.66;;;16.04;100.00
73101;BME280;61288;53.446;-2.266;2023-08-24T10:52:22;102001.66;;;16.17;100.00
73101;BME280;61288;53.446;-2.266;2023-08-24T10:54:50;102003.94;;;16.25;100.00
73101;BME280;61288;53.446;-2.266;2023-08-24T10:57:35;102000.28;;;16.29;100.00
73101;BME280;61288;53.446;-2.266;2023-08-24T11:02:51;101979.84;;;16.37;100.00
73101;BME280;61288;53.446;-2.266;2023-08-24T11:05:24;101974.72;;;16.36;100.00
73101;BME280;61288;53.446;-2.266;2023-08-24T11:07:52;101965.94;;;16.37;100.00
73101;BME280;61288;53.446;-2.266;2023-08-24T11:10:19;101957.22;;;16.36;100.00
73101;BME280;61288;53.446;-2.266;2023-08-24T11:20:46;101928.53;;;16.35;100.00
73101;BME280;61288;53.446;-2.266;2023-08-24T11:23:12;101935.38;;;16.37;100.00
73101;BME280;61288;53.446;-2.266;2023-08-24T11:25:40;101929.91;;;16.43;100.00
73101;BME280;61288;53.446;-2.266;2023-08-24T11:28:05;101922.69;;;16.49;100.00
73101;BME280;61288;53.446;-2.266;2023-08-24T11:30:34;101914.53;;;16.55;100.00
73101;BME280;61288;53.446;-2.266;2023-08-24T11:33:01;101919.44;;;16.63;100.00
73101;BME280;61288;53.446;-2.266;2023-08-24T11:35:27;101922.81;;;16.65;100.00
73101;BME280;61288;53.446;-2.266;2023-08-24T11:37:56;101898.63;;;16.59;100.00
73101;BME280;61288;53.446;-2.266;2023-08-24T11:40:22;101873.41;;;16.58;100.00
73101;BME280;61288;53.446;-2.266;2023-08-24T11:42:57;101871.28;;;16.48;100.00
73101;BME280;61288;53.446;-2.266;2023-08-24T11:45:22;101875.06;;;16.40;100.00
73101;BME280;61288;53.446;-2.266;2023-08-24T11:47:51;101886.97;;;16.28;100.00
73101;BME280;61288;53.446;-2.266;2023-08-24T11:50:22;101883.94;;;16.19;100.00
73101;BME280;61288;53.446;-2.266;2023-08-24T11:52:48;101882.53;;;16.11;100.00
73101;BME280;61288;53.446;-2.266;2023-08-24T11:55:13;101889.78;;;16.05;100.00
73101;BME280;61288;53.446;-2.266;2023-08-24T11:57:39;101898.72;;;15.99;100.00
73101;BME280;61288;53.446;-2.266;2023-08-24T12:00:05;101906.84;;;15.93;100.00
73101;BME280;61288;53.446;-2.266;2023-08-24T12:02:31;101916.38;;;15.94;100.00
73101;BME280;61288;53.446;-2.266;2023-08-24T12:04:58;101934.81;;;15.91;100.00
73101;BME280;61288;53.446;-2.266;2023-08-24T12:07:24;101936.56;;;15.90;100.00
73101;BME280;61288;53.446;-2.266;2023-08-24T12:09:49;101931.34;;;15.90;100.00
73101;BME280;61288;53.446;-2.266;2023-08-24T12:12:19;101923.41;;;15.93;100.00
73101;BME280;61288;53.446;-2.266;2023-08-24T12:14:49;101921.28;;;16.01;100.00
73101;BME280;61288;53.446;-2.266;2023-08-24T12:17:16;101932.38;;;16.07;100.00
73101;BME280;61288;53.446;-2.266;2023-08-24T12:20:00;101919.69;;;16.18;100.00
73101;BME280;61288;53.446;-2.266;2023-08-24T12:22:27;101914.88;;;16.28;100.00
73101;BME280;61288;53.446;-2.266;2023-08-24T12:24:54;101903.94;;;16.39;100.00
73101;BME280;61288;53.446;-2.266;2023-08-24T12:27:26;101904.44;;;16.47;100.00
73101;BME280;61288;53.446;-2.266;2023-08-24T12:29:52;101890.13;;;16.54;100.00
73101;BME280;61288;53.446;-2.266;2023-08-24T12:32:21;101870.63;;;16.62;100.00
73101;BME280;61288;53.446;-2.266;2023-08-24T12:34:50;101867.78;;;16.66;100.00
73101;BME280;61288;53.446;-2.266;2023-08-24T12:37:22;101864.09;;;16.70;100.00
73101;BME280;61288;53.446;-2.266;2023-08-24T12:39:47;101846.63;;;16.71;100.00
73101;BME280;61288;53.446;-2.266;2023-08-24T12:42:13;101828.88;;;16.78;100.00
73101;BME280;61288;53.446;-2.266;2023-08-24T12:44:39;101829.34;;;16.86;100.00
73101;BME280;61288;53.446;-2.266;2023-08-24T12:47:04;101838.13;;;17.02;100.00
73101;BME280;61288;53.446;-2.266;2023-08-24T12:49:30;101821.81;;;17.32;100.00